sensor_id;sensor_type;location;lat;lon;timestamp;pressure;altitude;pressure_sealevel;temperature;humidity
34237;BME280;20501;45.956;13.632;2022-10-16T00:01:32;101111.88;;;14.01;78.98
34237;BME280;20501;45.956;13.632;2022-10-16T00:03:58;101105.31;;;13.94;78.17
34237;BME280;20501;45.956;13.632;2022-10-16T00:06:25;101106.00;;;13.96;78.65
34237;BME280;20501;45.956;13.632;2022-10-16T00:08:51;101112.25;;;14.06;79.22
34237;BME280;20501;45.956;13.632;2022-10-16T00:11:23;101106.56;;;14.00;78.57
34237;BME280;20501;45.956;13.632;2022-10-16T00:13:51;101104.66;;;14.10;76.74
34237;BME280;20501;45.956;13.632;2022-10-16T00:16:18;101111.19;;;13.89;77.39
34237;BME280;20501;45.956;13.632;2022-10-16T00:18:44;101105.59;;;14.75;76.26
34237;BME280;20501;45.956;13.632;2022-10-16T00:21:12;101113.19;;;14.25;75.32
34237;BME280;20501;45.956;13.632;2022-10-16T00:23:38;101107.16;;;14.77;76.34
34237;BME280;20501;45.956;13.632;2022-10-16T00:26:06;101115.34;;;14.21;75.88
34237;BME280;20501;45.956;13.632;2022-10-16T00:28:34;101104.75;;;14.46;75.90
34237;BME280;20501;45.956;13.632;2022-10-16T00:31:09;101107.34;;;14.20;75.94
34237;BME280;20501;45.956;13.632;2022-10-16T00:33:36;101110.91;;;14.48;74.99
34237;BME280;20501;45.956;13.632;2022-10-16T00:36:03;101119.16;;;15.29;74.49
34237;BME280;20501;45.956;13.632;2022-10-16T00:38:29;101113.28;;;15.15;74.17
34237;BME280;20501;45.956;13.632;2022-10-16T00:40:55;101120.38;;;15.35;71.09
34237;BME280;20501;45.956;13.632;2022-10-16T00:43:34;101117.28;;;14.57;74.10
34237;BME280;20501;45.956;13.632;2022-10-16T00:46:01;101118.25;;;14.38;75.98
34237;BME280;20501;45.956;13.632;2022-10-16T00:48:28;101125.84;;;14.06;76.59
34237;BME280;20501;45.956;13.632;2022-10-16T00:50:55;101122.91;;;14.74;76.04
34237;BME280;20501;45.956;13.632;2022-10-16T00:53:21;101124.22;;;14.69;74.75
34237;BME280;20501;45.956;13.632;2022-10-16T00:55:47;101128.03;;;15.57;73.68
34237;BME280;20501;45.956;13.632;2022-10-16T00:58:12;101134.22;;;15.41;71.64
34237;BME280;20501;45.956;13.632;2022-10-16T01:00:38;101130.06;;;15.55;71.06
34237;BME280;20501;45.956;13.632;2022-10-16T01:03:23;101128.69;;;15.77;71.07
34237;BME280;20501;45.956;13.632;2022-10-16T01:06:01;101135.03;;;14.79;73.23
34237;BME280;20501;45.956;13.632;2022-10-16T01:08:43;101136.22;;;15.57;72.31
34237;BME280;20501;45.956;13.632;2022-10-16T01:11:17;101138.00;;;15.93;71.82
34237;BME280;20501;45.956;13.632;2022-10-16T01:13:50;101144.88;;;16.40;70.53
34237;BME280;20501;45.956;13.632;2022-10-16T01:16:43;101147.84;;;16.71;69.20
34237;BME280;20501;45.956;13.632;2022-10-16T01:19:19;101150.63;;;16.88;68.71
34237;BME280;20501;45.956;13.632;2022-10-16T01:21:47;101151.66;;;16.87;68.56
34237;BME280;20501;45.956;13.632;2022-10-16T01:27:29;101148.25;;;16.34;67.88
34237;BME280;20501;45.956;13.632;2022-10-16T01:30:01;101148.03;;;16.86;68.78
34237;BME280;20501;45.956;13.632;2022-10-16T01:37:58;101150.75;;;14.85;75.39
34237;BME280;20501;45.956;13.632;2022-10-16T01:40:27;101151.47;;;14.60;75.26
34237;BME280;20501;45.956;13.632;2022-10-16T01:43:03;101151.06;;;14.54;74.72
34237;BME280;20501;45.956;13.632;2022-10-16T01:45:31;101152.06;;;13.98;76.08
34237;BME280;20501;45.956;13.632;2022-10-16T01:48:00;101154.00;;;15.07;75.31
34237;BME280;20501;45.956;13.632;2022-10-16T01:50:31;101155.19;;;14.31;74.69
34237;BME280;20501;45.956;13.632;2022-10-16T01:53:00;101151.53;;;13.84;76.75
34237;BME280;20501;45.956;13.632;2022-10-16T01:55:36;101153.97;;;13.68;77.67
34237;BME280;20501;45.956;13.632;2022-10-16T01:58:05;101158.13;;;13.82;79.04
34237;BME280;20501;45.956;13.632;2022-10-16T02:00:32;101155.34;;;15.03;74.47
34237;BME280;20501;45.956;13.632;2022-10-16T02:02:59;101145.88;;;14.89;73.39
34237;BME280;20501;45.956;13.632;2022-10-16T02:05:34;101151.97;;;14.91;72.87
34237;BME280;20501;45.956;13.632;2022-10-16T02:08:02;101152.34;;;14.32;73.83
34237;BME280;20501;45.956;13.632;2022-10-16T02:10:28;101154.31;;;14.86;75.50
34237;BME280;20501;45.956;13.632;2022-10-16T02:13:38;101162.09;;;16.06;71.32
34237;BME280;20501;45.956;13.632;2022-10-16T02:16:09;101161.81;;;16.17;68.65
34237;BME280;20501;45.956;13.632;2022-10-16T02:18:35;101164.63;;;16.42;69.38
34237;BME280;20501;45.956;13.632;2022-10-16T02:21:09;101167.09;;;15.84;70.37
34237;BME280;20501;45.956;13.632;2022-10-16T02:23:49;101169.03;;;16.35;69.87
34237;BME280;20501;45.956;13.632;2022-10-16T02:26:29;101168.47;;;16.66;69.08
34237;BME280;20501;45.956;13.632;2022-10-16T02:29:01;101161.97;;;16.59;69.32
34237;BME280;20501;45.956;13.632;2022-10-16T02:31:32;101164.69;;;16.50;69.56
34237;BME280;20501;45.956;13.632;2022-10-16T02:34:01;101164.44;;;15.56;69.88
34237;BME280;20501;45.956;13.632;2022-10-16T02:36:28;101170.69;;;15.93;70.70
34237;BME280;20501;45.956;13.632;2022-10-16T02:38:54;101171.13;;;16.06;70.17
34237;BME280;20501;45.956;13.632;2022-10-16T02:41:21;101166.91;;;16.20;67.77
34237;BME280;20501;45.956;13.632;2022-10-16T02:43:48;101169.84;;;15.30;73.42
34237;BME280;20501;45.956;13.632;2022-10-16T02:46:14;101168.81;;;14.49;75.01
34237;BME280;20501;45.956;13.632;2022-10-16T02:48:39;101166.84;;;13.75;76.45
34237;BME280;20501;45.956;13.632;2022-10-16T02:51:05;101172.75;;;13.99;77.28
34237;BME280;20501;45.956;13.632;2022-10-16T02:53:30;101171.47;;;14.03;75.73
34237;BME280;20501;45.956;13.632;2022-10-16T02:55:55;101174.28;;;14.11;74.79
34237;BME280;20501;45.956;13.632;2022-10-16T02:58:21;101174.47;;;13.52;77.57
34237;BME280;20501;45.956;13.632;2022-10-16T03:00:46;101170.94;;;14.27;77.38
34237;BME280;20501;45.956;13.632;2022-10-16T03:03:12;101172.06;;;14.62;75.99
34237;BME280;20501;45.956;13.632;2022-10-16T03:05:37;101172.06;;;14.62;73.89
34237;BME280;20501;45.956;13.632;2022-10-16T03:08:02;101178.56;;;15.33;73.75
34237;BME280;20501;45.956;13.632;2022-10-16T03:10:28;101170.03;;;16.25;70.45
34237;BME280;20501;45.956;13.632;2022-10-16T03:12:53;101173.31;;;16.37;70.00
34237;BME280;20501;45.956;13.632;2022-10-16T03:15:19;101178.09;;;16.35;68.73
34237;BME280;20501;45.956;13.632;2022-10-16T03:17:44;101175.31;;;16.70;68.73
34237;BME280;20501;45.956;13.632;2022-10-16T03:20:10;101173.78;;;16.67;68.70
34237;BME280;20501;45.956;13.632;2022-10-16T03:22:35;101174.13;;;16.81;68.16
34237;BME280;20501;45.956;13.632;2022-10-16T03:25:00;101171.13;;;16.41;69.43
34237;BME280;20501;45.956;13.632;2022-10-16T03:27:26;101176.69;;;15.97;70.60
34237;BME280;20501;45.956;13.632;2022-10-16T03:29:51;101175.22;;;16.53;69.46
34237;BME280;20501;45.956;13.632;2022-10-16T03:32:17;101168.09;;;16.18;67.58
34237;BME280;20501;45.956;13.632;2022-10-16T03:34:43;101169.66;;;15.05;70.74
34237;BME280;20501;45.956;13.632;2022-10-16T03:37:09;101171.38;;;15.06;71.19
34237;BME280;20501;45.956;13.632;2022-10-16T03:39:34;101170.94;;;15.82;71.44
34237;BME280;20501;45.956;13.632;2022-10-16T03:42:00;101185.09;;;15.59;72.63
34237;BME280;20501;45.956;13.632;2022-10-16T03:44:25;101171.19;;;15.26;71.45
34237;BME280;20501;45.956;13.632;2022-10-16T03:46:50;101171.72;;;14.75;75.07
34237;BME280;20501;45.956;13.632;2022-10-16T03:49:16;101167.72;;;14.69;72.95
34237;BME280;20501;45.956;13.632;2022-10-16T03:51:41;101173.75;;;14.07;75.26
34237;BME280;20501;45.956;13.632;2022-10-16T03:54:06;101176.53;;;13.88;76.10
34237;BME280;20501;45.956;13.632;2022-10-16T03:56:32;101175.63;;;14.35;76.53
34237;BME280;20501;45.956;13.632;2022-10-16T03:58:58;101162.00;;;14.45;75.35
34237;BME280;20501;45.956;13.632;2022-10-16T04:01:24;101172.84;;;14.17;77.05
34237;BME280;20501;45.956;13.632;2022-10-16T04:03:49;101173.19;;;15.60;72.99
34237;BME280;20501;45.956;13.632;2022-10-16T04:06:15;101174.28;;;14.77;73.39
34237;BME280;20501;45.956;13.632;2022-10-16T04:08:42;101181.84;;;15.37;72.27
34237;BME280;20501;45.956;13.632;2022-10-16T04:11:08;101174.50;;;15.56;71.70
34237;BME280;20501;45.956;13.632;2022-10-16T04:13:33;101170.13;;;15.00;74.45
34237;BME280;20501;45.956;13.632;2022-10-16T04:15:59;101170.13;;;16.16;70.98
34237;BME280;20501;45.956;13.632;2022-10-16T04:18:24;101165.25;;;15.93;70.41
34237;BME280;20501;45.956;13.632;2022-10-16T04:20:52;101165.19;;;16.46;69.56
34237;BME280;20501;45.956;13.632;2022-10-16T04:23:18;101166.72;;;16.56;67.88
34237;BME280;20501;45.956;13.632;2022-10-16T04:25:43;101169.47;;;16.14;70.24
34237;BME280;20501;45.956;13.632;2022-10-16T04:28:09;101162.06;;;15.53;70.11
34237;BME280;20501;45.956;13.632;2022-10-16T04:30:34;101163.09;;;14.98;71.68
34237;BME280;20501;45.956;13.632;2022-10-16T04:32:59;101156.13;;;15.31;73.32
34237;BME280;20501;45.956;13.632;2022-10-16T04:35:25;101164.91;;;16.31;70.14
34237;BME280;20501;45.956;13.632;2022-10-16T04:37:50;101166.13;;;15.49;72.84
34237;BME280;20501;45.956;13.632;2022-10-16T04:40:16;101166.78;;;16.22;68.13
34237;BME280;20501;45.956;13.632;2022-10-16T04:42:42;101167.09;;;16.19;67.97
34237;BME280;20501;45.956;13.632;2022-10-16T04:45:08;101174.91;;;16.56;68.91
34237;BME280;20501;45.956;13.632;2022-10-16T04:47:34;101167.94;;;16.54;69.04
34237;BME280;20501;45.956;13.632;2022-10-16T04:49:59;101168.34;;;16.76;68.22
34237;BME280;20501;45.956;13.632;2022-10-16T04:52:26;101167.56;;;16.49;69.19
34237;BME280;20501;45.956;13.632;2022-10-16T04:54:51;101166.03;;;16.12;68.17
34237;BME280;20501;45.956;13.632;2022-10-16T04:57:17;101160.34;;;15.52;69.82
34237;BME280;20501;45.956;13.632;2022-10-16T04:59:43;101158.47;;;15.53;72.37
34237;BME280;20501;45.956;13.632;2022-10-16T05:02:08;101162.81;;;15.19;73.59
34237;BME280;20501;45.956;13.632;2022-10-16T05:04:34;101158.81;;;14.21;75.06
34237;BME280;20501;45.956;13.632;2022-10-16T05:06:59;101163.16;;;14.70;75.51
34237;BME280;20501;45.956;13.632;2022-10-16T05:09:24;101153.91;;;14.81;72.86
34237;BME280;20501;45.956;13.632;2022-10-16T05:11:50;101160.44;;;14.70;72.78
34237;BME280;20501;45.956;13.632;2022-10-16T05:14:15;101168.63;;;14.88;72.98
34237;BME280;20501;45.956;13.632;2022-10-16T05:16:41;101164.13;;;15.33;73.68
34237;BME280;20501;45.956;13.632;2022-10-16T05:19:06;101170.41;;;15.33;71.24
34237;BME280;20501;45.956;13.632;2022-10-16T05:21:32;101178.78;;;15.58;70.86
34237;BME280;20501;45.956;13.632;2022-10-16T05:23:57;101170.75;;;16.01;70.88
34237;BME280;20501;45.956;13.632;2022-10-16T05:26:23;101162.66;;;13.91;75.65
34237;BME280;20501;45.956;13.632;2022-10-16T05:28:49;101174.22;;;14.86;73.21
34237;BME280;20501;45.956;13.632;2022-10-16T05:31:15;101179.41;;;14.80;73.97
34237;BME280;20501;45.956;13.632;2022-10-16T05:33:40;101184.97;;;16.21;70.21
34237;BME280;20501;45.956;13.632;2022-10-16T05:36:08;101182.75;;;16.17;68.86
34237;BME280;20501;45.956;13.632;2022-10-16T05:38:34;101183.56;;;16.09;70.06
34237;BME280;20501;45.956;13.632;2022-10-16T05:41:00;101181.63;;;15.30;70.44
34237;BME280;20501;45.956;13.632;2022-10-16T05:43:27;101188.97;;;14.84;74.28
34237;BME280;20501;45.956;13.632;2022-10-16T05:45:55;101193.41;;;15.39;72.88
34237;BME280;20501;45.956;13.632;2022-10-16T05:48:20;101190.53;;;15.59;71.66
34237;BME280;20501;45.956;13.632;2022-10-16T05:50:45;101194.31;;;16.11;70.06
34237;BME280;20501;45.956;13.632;2022-10-16T05:53:11;101191.44;;;15.86;70.61
34237;BME280;20501;45.956;13.632;2022-10-16T05:55:36;101191.16;;;15.35;72.51
34237;BME280;20501;45.956;13.632;2022-10-16T05:58:01;101192.44;;;15.04;71.33
34237;BME280;20501;45.956;13.632;2022-10-16T06:00:27;101191.13;;;15.89;68.70
34237;BME280;20501;45.956;13.632;2022-10-16T06:02:53;101190.31;;;15.52;70.81
34237;BME280;20501;45.956;13.632;2022-10-16T06:05:18;101194.06;;;16.30;69.72
34237;BME280;20501;45.956;13.632;2022-10-16T06:07:44;101193.59;;;16.43;68.78
34237;BME280;20501;45.956;13.632;2022-10-16T06:10:09;101197.09;;;16.27;69.57
34237;BME280;20501;45.956;13.632;2022-10-16T06:12:34;101201.47;;;16.12;68.12
34237;BME280;20501;45.956;13.632;2022-10-16T06:15:00;101203.94;;;15.97;68.61
34237;BME280;20501;45.956;13.632;2022-10-16T06:17:25;101218.56;;;16.22;67.93
34237;BME280;20501;45.956;13.632;2022-10-16T06:19:51;101218.44;;;16.05;69.79
34237;BME280;20501;45.956;13.632;2022-10-16T06:22:16;101221.06;;;16.50;68.88
34237;BME280;20501;45.956;13.632;2022-10-16T06:24:41;101234.06;;;16.21;70.26
34237;BME280;20501;45.956;13.632;2022-10-16T06:27:07;101232.69;;;15.91;70.35
34237;BME280;20501;45.956;13.632;2022-10-16T06:29:32;101239.13;;;16.43;69.24
34237;BME280;20501;45.956;13.632;2022-10-16T06:31:57;101252.38;;;16.72;67.91
34237;BME280;20501;45.956;13.632;2022-10-16T06:34:23;101259.06;;;15.90;68.21
34237;BME280;20501;45.956;13.632;2022-10-16T06:36:48;101267.22;;;15.72;71.03
34237;BME280;20501;45.956;13.632;2022-10-16T06:39:14;101254.88;;;14.78;72.05
34237;BME280;20501;45.956;13.632;2022-10-16T06:41:39;101263.94;;;14.11;74.78
34237;BME280;20501;45.956;13.632;2022-10-16T06:44:05;101273.56;;;14.53;75.59
34237;BME280;20501;45.956;13.632;2022-10-16T06:46:32;101277.91;;;14.36;74.88
34237;BME280;20501;45.956;13.632;2022-10-16T06:48:57;101274.44;;;13.76;76.51
34237;BME280;20501;45.956;13.632;2022-10-16T06:51:24;101284.00;;;14.00;77.89
34237;BME280;20501;45.956;13.632;2022-10-16T06:53:55;101280.34;;;14.29;76.95
34237;BME280;20501;45.956;13.632;2022-10-16T06:56:23;101284.19;;;14.36;74.51
34237;BME280;20501;45.956;13.632;2022-10-16T06:58:50;101288.41;;;14.11;75.98
34237;BME280;20501;45.956;13.632;2022-10-16T07:01:18;101296.00;;;14.07;76.33
34237;BME280;20501;45.956;13.632;2022-10-16T07:03:44;101297.16;;;13.95;76.17
34237;BME280;20501;45.956;13.632;2022-10-16T07:06:12;101302.13;;;14.19;75.87
34237;BME280;20501;45.956;13.632;2022-10-16T07:08:39;101310.63;;;14.54;75.55
34237;BME280;20501;45.956;13.632;2022-10-16T07:11:06;101317.63;;;14.94;73.98
34237;BME280;20501;45.956;13.632;2022-10-16T07:13:36;101325.00;;;14.74;74.12
34237;BME280;20501;45.956;13.632;2022-10-16T07:16:13;101320.81;;;14.90;74.97
34237;BME280;20501;45.956;13.632;2022-10-16T07:18:39;101331.09;;;14.38;74.78
34237;BME280;20501;45.956;13.632;2022-10-16T07:21:10;101330.09;;;14.49;74.80
34237;BME280;20501;45.956;13.632;2022-10-16T07:23:36;101336.09;;;14.53;76.00
34237;BME280;20501;45.956;13.632;2022-10-16T07:26:03;101337.06;;;14.72;74.48
34237;BME280;20501;45.956;13.632;2022-10-16T07:28:29;101346.19;;;14.80;74.11
34237;BME280;20501;45.956;13.632;2022-10-16T07:30:55;101348.53;;;14.55;75.06
34237;BME280;20501;45.956;13.632;2022-10-16T07:33:21;101349.75;;;14.23;75.99
34237;BME280;20501;45.956;13.632;2022-10-16T07:35:53;101349.59;;;14.05;77.11
34237;BME280;20501;45.956;13.632;2022-10-16T07:38:20;101350.19;;;13.99;77.11
34237;BME280;20501;45.956;13.632;2022-10-16T07:40:46;101354.84;;;14.46;76.70
34237;BME280;20501;45.956;13.632;2022-10-16T07:43:12;101358.41;;;15.04;74.52
34237;BME280;20501;45.956;13.632;2022-10-16T07:45:45;101355.81;;;14.75;74.98
34237;BME280;20501;45.956;13.632;2022-10-16T07:48:14;101360.44;;;14.35;76.05
34237;BME280;20501;45.956;13.632;2022-10-16T07:50:39;101364.66;;;15.14;74.19
34237;BME280;20501;45.956;13.632;2022-10-16T07:53:04;101370.69;;;14.70;75.38
34237;BME280;20501;45.956;13.632;2022-10-16T07:55:31;101359.13;;;14.49;76.04
34237;BME280;20501;45.956;13.632;2022-10-16T07:57:56;101371.25;;;14.64;75.44
34237;BME280;20501;45.956;13.632;2022-10-16T08:00:22;101365.56;;;14.67;74.83
34237;BME280;20501;45.956;13.632;2022-10-16T08:02:47;101366.03;;;14.91;75.57
34237;BME280;20501;45.956;13.632;2022-10-16T08:05:12;101367.41;;;14.67;75.01
34237;BME280;20501;45.956;13.632;2022-10-16T08:07:38;101370.97;;;14.77;76.06
34237;BME280;20501;45.956;13.632;2022-10-16T08:10:03;101372.56;;;14.70;75.10
34237;BME280;20501;45.956;13.632;2022-10-16T08:12:29;101363.66;;;14.58;75.70
34237;BME280;20501;45.956;13.632;2022-10-16T08:14:54;101372.72;;;14.59;75.64
34237;BME280;20501;45.956;13.632;2022-10-16T08:17:20;101375.94;;;14.82;75.50
34237;BME280;20501;45.956;13.632;2022-10-16T08:19:48;101383.47;;;14.40;76.54
34237;BME280;20501;45.956;13.632;2022-10-16T08:22:14;101389.03;;;14.68;75.88
34237;BME280;20501;45.956;13.632;2022-10-16T08:24:40;101385.63;;;14.47;76.63
34237;BME280;20501;45.956;13.632;2022-10-16T08:27:06;101382.41;;;14.61;76.03
34237;BME280;20501;45.956;13.632;2022-10-16T08:29:32;101385.31;;;14.50;76.29
34237;BME280;20501;45.956;13.632;2022-10-16T08:31:58;101385.00;;;15.10;74.38
34237;BME280;20501;45.956;13.632;2022-10-16T08:34:23;101387.44;;;14.76;75.65
34237;BME280;20501;45.956;13.632;2022-10-16T08:36:48;101382.81;;;14.86;76.13
34237;BME280;20501;45.956;13.632;2022-10-16T08:39:14;101383.06;;;15.30;74.38
34237;BME280;20501;45.956;13.632;2022-10-16T08:49:58;101386.16;;;15.63;73.28
34237;BME280;20501;45.956;13.632;2022-10-16T08:52:29;101386.66;;;15.95;72.44
34237;BME280;20501;45.956;13.632;2022-10-16T08:54:56;101388.78;;;15.27;74.66
34237;BME280;20501;45.956;13.632;2022-10-16T08:57:24;101398.06;;;15.62;73.86
34237;BME280;20501;45.956;13.632;2022-10-16T08:59:57;101404.22;;;15.65;73.82
34237;BME280;20501;45.956;13.632;2022-10-16T09:02:43;101393.53;;;15.53;74.37
34237;BME280;20501;45.956;13.632;2022-10-16T09:05:18;101396.63;;;15.58;73.94
34237;BME280;20501;45.956;13.632;2022-10-16T09:07:48;101410.78;;;15.62;73.80
34237;BME280;20501;45.956;13.632;2022-10-16T09:13:28;101404.06;;;16.38;71.30
34237;BME280;20501;45.956;13.632;2022-10-16T09:19:05;101411.34;;;16.30;71.47
34237;BME280;20501;45.956;13.632;2022-10-16T09:21:39;101418.25;;;16.68;70.15
34237;BME280;20501;45.956;13.632;2022-10-16T09:24:15;101416.91;;;16.73;69.96
34237;BME280;20501;45.956;13.632;2022-10-16T09:26:42;101410.88;;;16.61;71.09
34237;BME280;20501;45.956;13.632;2022-10-16T09:29:12;101412.59;;;16.88;69.95
34237;BME280;20501;45.956;13.632;2022-10-16T09:31:39;101419.16;;;16.77;69.84
34237;BME280;20501;45.956;13.632;2022-10-16T09:34:06;101418.72;;;16.64;71.13
34237;BME280;20501;45.956;13.632;2022-10-16T09:36:40;101413.06;;;16.83;70.15
34237;BME280;20501;45.956;13.632;2022-10-16T09:39:09;101418.69;;;16.82;70.43
34237;BME280;20501;45.956;13.632;2022-10-16T09:41:38;101422.44;;;17.07;69.17
34237;BME280;20501;45.956;13.632;2022-10-16T09:44:13;101423.81;;;16.85;70.40
34237;BME280;20501;45.956;13.632;2022-10-16T09:46:42;101425.50;;;16.78;70.28
34237;BME280;20501;45.956;13.632;2022-10-16T09:49:22;101435.03;;;16.82;70.77
34237;BME280;20501;45.956;13.632;2022-10-16T09:51:48;101425.44;;;16.96;70.34
34237;BME280;20501;45.956;13.632;2022-10-16T09:56:41;101428.03;;;17.32;69.11
34237;BME280;20501;45.956;13.632;2022-10-16T09:59:20;101427.72;;;17.43;68.84
34237;BME280;20501;45.956;13.632;2022-10-16T10:01:48;101424.47;;;17.40;69.77
34237;BME280;20501;45.956;13.632;2022-10-16T10:04:16;101426.72;;;17.44;68.18
34237;BME280;20501;45.956;13.632;2022-10-16T10:06:45;101426.72;;;17.53;68.82
34237;BME280;20501;45.956;13.632;2022-10-16T10:11:59;101425.91;;;17.60;68.63
34237;BME280;20501;45.956;13.632;2022-10-16T10:14:32;101419.63;;;17.76;67.30
34237;BME280;20501;45.956;13.632;2022-10-16T10:17:19;101419.63;;;17.76;68.33
34237;BME280;20501;45.956;13.632;2022-10-16T10:19:58;101416.75;;;17.86;68.17
34237;BME280;20501;45.956;13.632;2022-10-16T10:22:45;101420.00;;;17.90;67.41
34237;BME280;20501;45.956;13.632;2022-10-16T10:28:07;101425.00;;;18.11;67.34
34237;BME280;20501;45.956;13.632;2022-10-16T10:30:53;101412.03;;;18.21;66.20
34237;BME280;20501;45.956;13.632;2022-10-16T10:36:25;101407.06;;;18.17;66.68
34237;BME280;20501;45.956;13.632;2022-10-16T10:52:13;101387.25;;;18.56;65.71
34237;BME280;20501;45.956;13.632;2022-10-16T10:55:46;101398.00;;;18.49;65.61
34237;BME280;20501;45.956;13.632;2022-10-16T11:00:50;101392.34;;;18.59;66.07
34237;BME280;20501;45.956;13.632;2022-10-16T11:06:00;101381.75;;;18.56;65.65
34237;BME280;20501;45.956;13.632;2022-10-16T11:11:24;101387.91;;;18.66;65.67
34237;BME280;20501;45.956;13.632;2022-10-16T11:16:43;101374.69;;;18.95;65.69
34237;BME280;20501;45.956;13.632;2022-10-16T11:19:17;101375.34;;;18.97;65.25
34237;BME280;20501;45.956;13.632;2022-10-16T11:21:51;101371.59;;;18.90;65.21
34237;BME280;20501;45.956;13.632;2022-10-16T11:24:24;101379.97;;;18.96;64.86
34237;BME280;20501;45.956;13.632;2022-10-16T11:26:56;101368.38;;;18.78;65.31
34237;BME280;20501;45.956;13.632;2022-10-16T11:29:30;101369.56;;;18.83;65.62
34237;BME280;20501;45.956;13.632;2022-10-16T11:32:01;101362.88;;;18.86;64.33
34237;BME280;20501;45.956;13.632;2022-10-16T11:34:48;101367.97;;;19.06;63.88
34237;BME280;20501;45.956;13.632;2022-10-16T11:37:19;101369.81;;;19.13;63.17
34237;BME280;20501;45.956;13.632;2022-10-16T11:39:46;101370.06;;;19.35;62.91
34237;BME280;20501;45.956;13.632;2022-10-16T11:42:30;101365.81;;;19.24;63.00
34237;BME280;20501;45.956;13.632;2022-10-16T11:47:45;101371.84;;;19.20;63.98
34237;BME280;20501;45.956;13.632;2022-10-16T11:50:23;101363.56;;;19.36;62.70
34237;BME280;20501;45.956;13.632;2022-10-16T11:55:53;101353.03;;;19.16;64.02
34237;BME280;20501;45.956;13.632;2022-10-16T11:58:32;101359.38;;;19.17;64.02
34237;BME280;20501;45.956;13.632;2022-10-16T12:03:30;101359.81;;;19.29;64.12
34237;BME280;20501;45.956;13.632;2022-10-16T12:08:38;101356.03;;;19.30;63.14
34237;BME280;20501;45.956;13.632;2022-10-16T12:13:47;101353.16;;;19.31;64.47
34237;BME280;20501;45.956;13.632;2022-10-16T12:18:45;101370.66;;;19.14;63.77
34237;BME280;20501;45.956;13.632;2022-10-16T12:21:13;101364.84;;;19.17;63.28
34237;BME280;20501;45.956;13.632;2022-10-16T12:23:55;101360.22;;;19.49;62.27
34237;BME280;20501;45.956;13.632;2022-10-16T12:26:26;101364.94;;;19.32;63.02
34237;BME280;20501;45.956;13.632;2022-10-16T12:28:53;101364.59;;;19.35;63.55
34237;BME280;20501;45.956;13.632;2022-10-16T12:31:20;101365.97;;;19.31;64.18
34237;BME280;20501;45.956;13.632;2022-10-16T12:34:32;101377.16;;;19.21;63.79
34237;BME280;20501;45.956;13.632;2022-10-16T12:37:10;101376.03;;;19.39;63.64
34237;BME280;20501;45.956;13.632;2022-10-16T12:39:36;101366.78;;;19.40;63.29
34237;BME280;20501;45.956;13.632;2022-10-16T12:42:05;101365.06;;;19.39;62.73
34237;BME280;20501;45.956;13.632;2022-10-16T12:44:35;101372.66;;;19.28;63.61
34237;BME280;20501;45.956;13.632;2022-10-16T12:47:01;101369.78;;;19.22;64.24
34237;BME280;20501;45.956;13.632;2022-10-16T12:51:53;101378.56;;;19.09;64.63
34237;BME280;20501;45.956;13.632;2022-10-16T12:54:25;101374.03;;;19.24;63.64
34237;BME280;20501;45.956;13.632;2022-10-16T12:57:25;101379.94;;;19.05;64.52
34237;BME280;20501;45.956;13.632;2022-10-16T13:00:37;101380.53;;;19.31;63.88
34237;BME280;20501;45.956;13.632;2022-10-16T13:08:50;101392.81;;;19.36;65.32
34237;BME280;20501;45.956;13.632;2022-10-16T13:27:18;101386.75;;;19.17;65.48
34237;BME280;20501;45.956;13.632;2022-10-16T13:29:52;101392.19;;;19.25;64.68
34237;BME280;20501;45.956;13.632;2022-10-16T13:32:21;101388.28;;;19.20;65.72
34237;BME280;20501;45.956;13.632;2022-10-16T13:34:48;101381.06;;;19.27;65.07
34237;BME280;20501;45.956;13.632;2022-10-16T13:37:22;101387.34;;;19.36;64.63
34237;BME280;20501;45.956;13.632;2022-10-16T13:39:48;101385.97;;;19.00;65.16
34237;BME280;20501;45.956;13.632;2022-10-16T13:42:21;101393.13;;;19.01;65.33
34237;BME280;20501;45.956;13.632;2022-10-16T13:44:53;101397.63;;;19.33;64.75
34237;BME280;20501;45.956;13.632;2022-10-16T13:47:24;101387.75;;;19.24;64.92
34237;BME280;20501;45.956;13.632;2022-10-16T13:50:04;101393.56;;;19.29;65.00
34237;BME280;20501;45.956;13.632;2022-10-16T13:52:30;101395.06;;;19.32;64.89
34237;BME280;20501;45.956;13.632;2022-10-16T13:54:56;101400.91;;;19.29;64.98
34237;BME280;20501;45.956;13.632;2022-10-16T13:57:23;101390.84;;;19.21;64.85
34237;BME280;20501;45.956;13.632;2022-10-16T13:59:50;101385.53;;;19.20;65.43
34237;BME280;20501;45.956;13.632;2022-10-16T14:02:36;101388.75;;;19.31;65.33
34237;BME280;20501;45.956;13.632;2022-10-16T14:05:08;101389.94;;;19.29;65.41
34237;BME280;20501;45.956;13.632;2022-10-16T14:07:35;101381.63;;;19.14;65.70
34237;BME280;20501;45.956;13.632;2022-10-16T14:10:04;101387.44;;;19.19;65.30
34237;BME280;20501;45.956;13.632;2022-10-16T14:12:31;101388.81;;;19.15;65.73
34237;BME280;20501;45.956;13.632;2022-10-16T14:14:58;101380.78;;;19.13;65.40
34237;BME280;20501;45.956;13.632;2022-10-16T14:17:26;101385.56;;;19.11;65.70
34237;BME280;20501;45.956;13.632;2022-10-16T14:19:55;101383.19;;;19.08;65.94
34237;BME280;20501;45.956;13.632;2022-10-16T14:22:38;101382.72;;;18.96;65.78
34237;BME280;20501;45.956;13.632;2022-10-16T14:25:24;101385.72;;;19.18;65.34
34237;BME280;20501;45.956;13.632;2022-10-16T14:30:28;101386.94;;;19.07;67.05
34237;BME280;20501;45.956;13.632;2022-10-16T14:33:02;101392.59;;;19.06;66.28